Time;durP1;ratioP1;P1;durP2;ratioP2;P2;SDS_P1;SDS_P2;PMS_P1;PMS_P2;Temp;Humidity;BMP_temperature;BMP_pressure;BME280_temperature;BME280_humidity;BME280_pressure;Samples;Min_cycle;Max_cycle;Signal;HPM_P1;HPM_P2
2022/04/08 00:01:53;;;;;;;;;0.25;0.00;;;;;15.60;41.99;100134.16;5097805;27;62179;-79
2022/04/08 00:04:19;;;;;;;;;2.00;0.00;;;;;15.66;41.96;100123.66;5097598;27;61986;-78
2022/04/08 00:06:44;;;;;;;;;0.00;0.00;;;;;15.69;41.96;100115.75;5082252;28;62001;-79
2022/04/08 00:09:10;;;;;;;;;0.00;0.00;;;;;15.66;42.02;100107.78;5096781;27;63977;-78
2022/04/08 00:11:35;;;;;;;;;3.00;0.00;;;;;15.68;41.95;100113.06;5081561;28;61801;-78
2022/04/08 00:14:01;;;;;;;;;0.75;0.00;;;;;15.74;41.86;100118.47;5097824;27;61831;-78
2022/04/08 00:16:27;;;;;;;;;2.00;0.00;;;;;15.72;42.11;100125.50;5081679;28;61775;-79
2022/04/08 00:18:53;;;;;;;;;0.75;0.00;;;;;15.66;41.88;100107.78;5081382;28;62484;-79
2022/04/08 00:21:18;;;;;;;;;0.50;0.50;;;;;15.67;41.82;100108.66;5081743;27;61751;-79
2022/04/08 00:23:45;;;;;;;;;1.00;0.00;;;;;15.66;42.16;100110.41;5082063;28;62183;-79
2022/04/08 00:26:11;;;;;;;;;0.00;0.00;;;;;15.77;42.08;100113.25;5081817;28;61658;-79
2022/04/08 00:28:37;;;;;;;;;2.00;0.00;;;;;15.74;42.11;100113.19;5097011;27;63679;-79
2022/04/08 00:31:04;;;;;;;;;0.00;0.00;;;;;15.68;42.24;100105.13;5082136;28;61957;-79
2022/04/08 00:33:32;;;;;;;;;1.00;0.00;;;;;15.69;42.39;100112.22;5081819;28;61770;-79
2022/04/08 00:35:58;;;;;;;;;1.00;0.00;;;;;15.75;42.30;100109.69;5082034;28;61834;-79
2022/04/08 00:38:24;;;;;;;;;2.50;0.00;;;;;15.67;42.29;100108.66;5096410;27;63833;-79
2022/04/08 00:40:49;;;;;;;;;0.00;0.00;;;;;15.75;42.26;100101.75;5081270;28;61765;-79
2022/04/08 00:43:17;;;;;;;;;0.00;0.00;;;;;15.72;42.29;100096.41;5097466;27;61870;-79
2022/04/08 00:45:43;;;;;;;;;0.00;0.00;;;;;15.74;42.09;100102.59;5081834;28;62027;-79
2022/04/08 00:48:09;;;;;;;;;0.75;0.00;;;;;15.73;42.53;100103.47;5083707;28;61923;-79
2022/04/08 00:50:39;;;;;;;;;2.00;0.00;;;;;15.75;42.49;100101.75;5084771;28;62020;-78
2022/04/08 00:53:06;;;;;;;;;0.00;0.00;;;;;15.73;42.68;100090.25;5085125;28;61904;-79
2022/04/08 00:55:32;;;;;;;;;1.00;0.00;;;;;15.79;42.68;100087.69;5084739;28;62293;-79
2022/04/08 00:58:02;;;;;;;;;2.00;0.00;;;;;15.77;42.58;100091.16;5100330;27;63765;-79
2022/04/08 01:00:33;;;;;;;;;0.00;0.00;;;;;15.77;42.28;100094.72;5085219;28;61914;-79
2022/04/08 01:02:58;;;;;;;;;1.00;0.00;;;;;15.76;42.50;100098.22;5084962;28;62059;-79
2022/04/08 01:05:24;;;;;;;;;0.00;0.00;;;;;15.78;42.49;100088.53;5084749;28;62151;-78
2022/04/08 01:07:50;;;;;;;;;0.00;0.00;;;;;15.80;42.47;100080.63;5084046;28;62459;-79
2022/04/08 01:10:15;;;;;;;;;0.50;0.50;;;;;15.89;42.58;100080.72;5100143;27;61742;-79
2022/04/08 01:12:41;;;;;;;;;1.00;0.00;;;;;15.93;42.49;100082.53;5100376;27;62668;-79
2022/04/08 01:15:08;;;;;;;;;2.50;0.00;;;;;15.96;42.51;100085.22;5085150;28;62301;-79
2022/04/08 01:17:34;;;;;;;;;1.00;0.00;;;;;15.95;42.65;100075.50;5083857;28;61936;-79
2022/04/08 01:19:59;;;;;;;;;0.00;0.00;;;;;15.96;42.60;100082.59;5099639;27;62012;-78
2022/04/08 01:22:26;;;;;;;;;0.00;0.00;;;;;15.95;42.46;100071.09;5084727;28;61924;-79
2022/04/08 01:25:04;;;;;;;;;0.00;0.00;;;;;15.98;42.34;100072.91;5084555;28;61810;-79
2022/04/08 01:27:30;;;;;;;;;1.00;0.00;;;;;16.00;42.36;100075.53;5083671;28;62314;-79
2022/04/08 01:29:56;;;;;;;;;2.00;0.00;;;;;15.97;42.66;100076.41;5084653;28;62345;-79
2022/04/08 01:32:22;;;;;;;;;0.00;0.00;;;;;16.00;42.64;100070.25;5084832;28;62066;-79
2022/04/08 01:34:52;;;;;;;;;0.00;0.00;;;;;15.95;42.81;100071.09;5084283;28;61745;-78
2022/04/08 01:37:21;;;;;;;;;1.00;1.00;;;;;15.93;42.90;100067.53;5083698;27;62786;-79
2022/04/08 01:39:47;;;;;;;;;0.00;0.00;;;;;15.95;42.81;100067.56;5083431;28;62177;-79
2022/04/08 01:42:13;;;;;;;;;0.25;0.00;;;;;15.93;42.73;100058.72;5084630;28;61920;-79
2022/04/08 01:44:39;;;;;;;;;0.50;0.00;;;;;15.88;42.66;100060.44;5084300;28;62127;-79
2022/04/08 01:47:05;;;;;;;;;0.00;0.00;;;;;15.87;42.75;100056.88;5083713;28;61837;-79
2022/04/08 01:49:31;;;;;;;;;0.00;0.00;;;;;15.83;42.73;100056.81;5099533;27;61722;-79
2022/04/08 01:51:56;;;;;;;;;0.50;0.00;;;;;15.78;42.70;100056.78;5084342;28;62096;-79
2022/04/08 01:54:22;;;;;;;;;4.00;0.00;;;;;15.78;43.14;100043.56;5099936;27;62260;-79
2022/04/08 01:56:48;;;;;;;;;2.50;0.00;;;;;15.90;42.79;100048.09;5081504;28;64827;-79
2022/04/08 01:59:14;;;;;;;;;0.00;0.00;;;;;15.85;43.05;100040.13;5083209;28;62008;-79
2022/04/08 02:01:39;;;;;;;;;1.50;0.25;;;;;15.86;42.67;100041.88;5099496;27;62052;-79
2022/04/08 02:04:05;;;;;;;;;0.00;0.00;;;;;15.87;43.20;100033.06;5083949;28;62157;-79
2022/04/08 02:06:31;;;;;;;;;1.00;0.00;;;;;15.83;42.80;100043.59;5082967;28;62534;-79
2022/04/08 02:08:57;;;;;;;;;4.00;0.00;;;;;15.82;42.82;100042.72;5083678;28;62091;-79
2022/04/08 02:11:23;;;;;;;;;0.00;0.00;;;;;15.81;42.99;100047.97;5083759;28;61958;-79
2022/04/08 02:13:49;;;;;;;;;1.00;0.00;;;;;15.86;43.18;100044.53;5084081;28;61937;-79
2022/04/08 02:16:14;;;;;;;;;0.00;0.00;;;;;15.85;43.02;100048.06;5082923;28;61896;-79
2022/04/08 02:18:40;;;;;;;;;0.00;0.00;;;;;15.90;43.02;100042.81;5083305;28;61833;-78
2022/04/08 02:21:05;;;;;;;;;0.50;0.00;;;;;15.91;42.96;100036.63;5074766;28;61939;-79
2022/04/08 02:23:33;;;;;;;;;0.00;0.00;;;;;15.86;42.92;100035.72;5083883;28;62079;-78
2022/04/08 02:25:58;;;;;;;;;0.00;0.00;;;;;15.89;43.13;100035.72;5082611;28;62929;-79
2022/04/08 02:28:24;;;;;;;;;0.00;0.00;;;;;15.79;43.16;100036.50;5083594;28;61934;-79
2022/04/08 02:30:52;;;;;;;;;1.00;0.00;;;;;15.83;43.36;100033.00;5098931;27;61837;-78
2022/04/08 02:33:19;;;;;;;;;0.75;0.75;;;;;15.87;43.52;100021.59;5083726;28;62113;-78
2022/04/08 02:35:44;;;;;;;;;2.50;0.00;;;;;15.91;43.11;100023.41;5082462;28;62155;-79
2022/04/08 02:38:10;;;;;;;;;0.00;0.00;;;;;15.94;43.09;100026.97;5083099;28;61939;-79
2022/04/08 02:40:35;;;;;;;;;7.00;0.00;;;;;15.87;43.21;100021.59;5083394;28;61915;-79
2022/04/08 02:43:01;;;;;;;;;2.00;0.00;;;;;15.87;43.12;100021.59;5083218;28;62050;-79
2022/04/08 02:45:27;;;;;;;;;2.50;0.00;;;;;15.87;43.27;100013.66;5082935;28;61947;-79
2022/04/08 02:47:52;;;;;;;;;0.00;0.00;;;;;15.90;43.25;100014.59;5082920;28;62051;-79
2022/04/08 02:50:17;;;;;;;;;1.00;0.00;;;;;15.86;43.45;100003.94;5083447;28;61968;-79
2022/04/08 02:52:43;;;;;;;;;2.75;0.00;;;;;15.85;43.23;100002.16;5081802;27;62053;-79
2022/04/08 02:55:08;;;;;;;;;3.00;0.00;;;;;15.89;43.67;99994.25;5082307;28;62493;-79
2022/04/08 02:57:37;;;;;;;;;3.00;0.00;;;;;15.87;43.67;99990.72;5098475;27;62046;-79
2022/04/08 03:00:03;;;;;;;;;0.00;0.00;;;;;15.88;43.77;99991.63;5098671;27;61910;-79
2022/04/08 03:02:29;;;;;;;;;0.00;0.00;;;;;15.78;43.68;99995.03;5082956;28;62058;-79
2022/04/08 03:04:54;;;;;;;;;1.75;0.50;;;;;15.92;43.79;99994.31;5097785;27;63820;-79
2022/04/08 03:07:19;;;;;;;;;0.00;0.00;;;;;15.91;43.92;99983.69;5082901;28;61793;-79
2022/04/08 03:09:45;;;;;;;;;1.25;0.00;;;;;15.90;43.98;99985.47;5097858;27;62562;-78
2022/04/08 03:12:10;;;;;;;;;4.00;0.25;;;;;15.93;43.94;99987.25;5083123;28;61838;-79
2022/04/08 03:14:36;;;;;;;;;0.00;0.00;;;;;15.89;44.06;99983.69;5082274;28;62785;-78
2022/04/08 03:17:01;;;;;;;;;1.00;0.00;;;;;15.93;43.99;99981.94;5082336;28;61925;-78
2022/04/08 03:19:27;;;;;;;;;2.00;1.00;;;;;15.94;44.10;99979.34;5082740;28;61940;-79
2022/04/08 03:21:53;;;;;;;;;1.75;0.00;;;;;15.95;44.11;99981.09;5082777;28;63221;-79
2022/04/08 03:24:18;;;;;;;;;0.00;0.00;;;;;15.93;44.01;99982.84;5082078;28;61839;-79
2022/04/08 03:26:44;;;;;;;;;1.75;0.00;;;;;15.98;44.30;99982.00;5082175;28;61766;-79
2022/04/08 03:29:10;;;;;;;;;0.75;0.00;;;;;15.96;44.08;99976.72;5082649;28;61994;-79
2022/04/08 03:31:35;;;;;;;;;0.00;0.00;;;;;15.94;44.37;99975.81;5082332;28;61967;-78
2022/04/08 03:34:02;;;;;;;;;1.00;0.00;;;;;15.96;44.64;99979.34;5081837;28;62782;-79
2022/04/08 03:36:27;;;;;;;;;0.00;0.00;;;;;15.90;44.78;99972.22;5082413;28;61932;-79
2022/04/08 03:38:53;;;;;;;;;6.50;0.00;;;;;15.92;45.29;99969.59;5082001;28;61783;-78
2022/04/08 03:41:18;;;;;;;;;3.25;0.00;;;;;15.94;45.36;99967.88;5080944;28;61912;-79
2022/04/08 03:43:43;;;;;;;;;0.50;0.00;;;;;15.98;45.94;99959.09;5081729;28;61752;-78
2022/04/08 03:46:09;;;;;;;;;0.00;0.00;;;;;16.04;46.20;99953.81;5081846;28;62411;-79
2022/04/08 03:48:34;;;;;;;;;2.00;0.00;;;;;16.00;46.19;99953.78;5098170;27;62085;-79
2022/04/08 03:51:00;;;;;;;;;0.50;0.00;;;;;15.95;47.24;99953.75;5082312;28;62156;-79
2022/04/08 03:53:25;;;;;;;;;2.00;0.00;;;;;15.96;46.91;99939.66;5081322;28;62064;-79
2022/04/08 03:55:51;;;;;;;;;3.00;0.00;;;;;15.98;47.25;99937.00;5081849;28;61835;-79
2022/04/08 03:58:16;;;;;;;;;1.00;0.00;;;;;15.99;47.68;99928.19;5097961;27;61986;-79
2022/04/08 04:00:42;;;;;;;;;1.00;1.00;;;;;15.98;48.01;99913.16;5082236;28;62004;-79
2022/04/08 04:03:08;;;;;;;;;1.00;0.00;;;;;16.03;47.61;99901.75;5081374;28;62154;-79
2022/04/08 04:05:34;;;;;;;;;2.50;1.00;;;;;16.03;47.50;99911.47;5082067;28;62400;-79
2022/04/08 04:08:01;;;;;;;;;4.00;0.75;;;;;16.02;47.75;99907.91;5081755;28;61857;-79
2022/04/08 04:10:26;;;;;;;;;2.00;0.00;;;;;15.99;47.73;99907.91;5097520;27;62144;-78
2022/04/08 04:12:52;;;;;;;;;1.50;0.50;;;;;15.99;48.26;99899.09;5081413;28;61941;-78
2022/04/08 04:15:18;;;;;;;;;1.75;0.00;;;;;16.00;48.58;99896.41;5081895;28;61687;-78
2022/04/08 04:17:44;;;;;;;;;1.50;0.50;;;;;16.02;49.06;99902.63;5081954;28;61894;-78
2022/04/08 04:20:09;;;;;;;;;0.00;0.00;;;;;15.99;50.69;99892.03;5081649;28;62020;-78
2022/04/08 04:22:35;;;;;;;;;0.50;0.50;;;;;16.05;51.16;99885.91;5081751;28;63506;-78
2022/04/08 04:25:00;;;;;;;;;7.50;0.00;;;;;16.07;51.02;99873.56;5085081;28;61877;-78
2022/04/08 04:27:26;;;;;;;;;4.50;1.00;;;;;16.05;51.75;99881.47;5085394;28;61932;-78
2022/04/08 04:29:51;;;;;;;;;1.00;0.00;;;;;16.07;51.61;99870.91;5085687;28;61929;-78
2022/04/08 04:32:19;;;;;;;;;2.50;0.00;;;;;16.09;51.43;99862.09;5084593;28;61888;-78
2022/04/08 04:34:45;;;;;;;;;2.00;1.00;;;;;16.11;51.67;99860.34;5085573;28;61772;-79
2022/04/08 04:37:11;;;;;;;;;0.00;0.00;;;;;16.11;51.02;99854.16;5087588;28;61836;-79
2022/04/08 04:39:37;;;;;;;;;1.00;1.00;;;;;16.17;50.85;99846.25;5101898;27;61850;-78
2022/04/08 04:42:03;;;;;;;;;1.00;1.00;;;;;16.19;50.98;99841.84;5085171;28;62197;-79
2022/04/08 04:44:29;;;;;;;;;0.00;0.00;;;;;16.17;51.10;99840.94;5101357;27;62122;-78
2022/04/08 04:46:55;;;;;;;;;2.25;2.25;;;;;16.12;50.72;99829.47;5101808;27;62050;-79
2022/04/08 04:49:21;;;;;;;;;2.50;2.00;;;;;16.08;50.57;99822.38;5087107;28;61784;-79
2022/04/08 04:51:48;;;;;;;;;2.25;0.75;;;;;16.07;51.49;99816.19;5085628;28;62600;-79
2022/04/08 04:54:14;;;;;;;;;6.00;1.00;;;;;16.06;51.89;99808.25;5085835;27;61860;-80
2022/04/08 04:56:39;;;;;;;;;0.75;0.75;;;;;16.06;51.85;99797.66;5086270;28;61937;-78
2022/04/08 04:59:04;;;;;;;;;2.25;1.00;;;;;16.07;51.50;99796.78;5085971;28;61950;-79
2022/04/08 05:01:30;;;;;;;;;1.00;1.00;;;;;16.08;51.38;99790.59;5085686;28;61838;-79
2022/04/08 05:03:55;;;;;;;;;0.25;0.25;;;;;16.10;51.50;99786.19;5086747;28;61946;-79
2022/04/08 05:06:21;;;;;;;;;2.75;0.25;;;;;16.09;50.97;99780.03;5086653;28;62530;-79
2022/04/08 05:08:46;;;;;;;;;3.00;2.00;;;;;16.07;50.98;99773.84;5085940;28;62162;-80
2022/04/08 05:11:11;;;;;;;;;1.25;1.00;;;;;16.04;50.93;99771.16;5087051;28;62906;-80
2022/04/08 05:13:37;;;;;;;;;1.25;1.00;;;;;15.97;50.36;99764.06;5101431;27;61816;-80
2022/04/08 05:16:02;;;;;;;;;4.00;1.00;;;;;15.98;50.82;99764.94;5083029;28;62633;-80
2022/04/08 05:18:28;;;;;;;;;1.00;1.00;;;;;15.99;50.94;99750.84;5084866;28;61927;-80
2022/04/08 05:20:53;;;;;;;;;3.00;1.75;;;;;15.92;50.76;99742.88;5083422;28;61963;-80
2022/04/08 05:23:19;;;;;;;;;1.00;1.00;;;;;15.92;50.98;99732.28;5083542;28;61900;-80
2022/04/08 05:25:45;;;;;;;;;3.00;2.00;;;;;15.95;51.03;99732.28;5082165;28;61946;-79
2022/04/08 05:28:15;;;;;;;;;6.00;2.00;;;;;15.99;50.70;99729.69;5083898;27;62300;-79
2022/04/08 05:30:41;;;;;;;;;6.00;3.25;;;;;16.01;50.81;99730.56;5083630;27;62677;-78
2022/04/08 05:33:08;;;;;;;;;3.00;1.00;;;;;16.02;50.59;99717.31;5099748;27;62000;-80
2022/04/08 05:35:39;;;;;;;;;1.00;1.00;;;;;16.02;50.13;99719.97;5084332;28;62063;-78
2022/04/08 05:38:06;;;;;;;;;1.25;1.25;;;;;16.02;50.37;99708.50;5068250;28;61952;-77
2022/04/08 05:40:32;;;;;;;;;2.50;1.00;;;;;16.00;50.11;99703.19;5083689;27;62894;-77
2022/04/08 05:42:57;;;;;;;;;2.50;0.75;;;;;16.03;50.59;99708.53;5088264;27;62100;-78
2022/04/08 05:45:23;;;;;;;;;0.75;0.75;;;;;16.05;50.59;99695.31;5084104;27;61736;-79
2022/04/08 05:47:55;;;;;;;;;2.25;1.00;;;;;16.08;50.06;99690.00;5083658;28;61841;-79
2022/04/08 05:50:21;;;;;;;;;0.75;0.75;;;;;16.10;50.42;99683.84;5081664;28;62636;-79
2022/04/08 05:52:48;;;;;;;;;1.00;0.00;;;;;16.12;50.12;99676.78;5085021;27;61955;-79
2022/04/08 05:55:14;;;;;;;;;1.00;0.00;;;;;16.15;50.36;99678.56;5093730;27;61997;-79
2022/04/08 05:57:40;;;;;;;;;1.75;0.00;;;;;16.15;50.44;99668.88;5085028;27;62237;-79
2022/04/08 06:00:10;;;;;;;;;2.00;1.00;;;;;16.17;50.75;99671.50;5085675;28;62697;-79
2022/04/08 06:02:37;;;;;;;;;1.00;0.00;;;;;16.18;50.61;99662.69;5083575;27;61828;-81
2022/04/08 06:05:03;;;;;;;;;3.50;0.00;;;;;16.19;50.87;99659.16;5083788;28;62307;-80
2022/04/08 06:07:28;;;;;;;;;0.50;0.00;;;;;16.19;51.00;99658.28;5087027;28;61706;-81
2022/04/08 06:09:56;;;;;;;;;1.50;0.00;;;;;16.21;50.71;99646.81;5082432;27;62564;-80
2022/04/08 06:12:21;;;;;;;;;0.75;0.75;;;;;16.14;51.31;99648.56;5083502;27;62116;-79
2022/04/08 06:14:47;;;;;;;;;1.50;1.00;;;;;16.13;51.81;99645.88;5083774;27;61929;-79
2022/04/08 06:17:12;;;;;;;;;0.25;0.25;;;;;16.12;52.16;99631.78;5083722;27;61997;-84
2022/04/08 06:19:38;;;;;;;;;2.50;2.50;;;;;16.13;52.14;99632.66;5082647;27;62131;-81
2022/04/08 06:22:03;;;;;;;;;1.00;0.75;;;;;16.14;52.25;99632.66;5083255;28;61961;-83
2022/04/08 06:24:29;;;;;;;;;0.00;0.00;;;;;16.13;51.61;99620.31;5083007;27;62095;-82
2022/04/08 06:26:54;;;;;;;;;2.00;0.00;;;;;16.15;51.73;99609.72;5083145;27;61749;-82
2022/04/08 06:29:20;;;;;;;;;0.00;0.00;;;;;16.11;50.46;99614.16;5082891;27;62564;-82
2022/04/08 06:31:45;;;;;;;;;0.00;0.00;;;;;16.07;50.90;99607.06;5083490;27;61691;-77
2022/04/08 06:34:10;;;;;;;;;0.00;0.00;;;;;16.06;50.88;99589.41;5082156;28;61939;-76
2022/04/08 06:36:36;;;;;;;;;2.00;0.50;;;;;16.04;50.96;99601.75;5098889;27;61791;-75
2022/04/08 06:39:01;;;;;;;;;0.00;0.00;;;;;15.95;50.42;99604.38;5081592;27;61798;-77
2022/04/08 06:41:27;;;;;;;;;0.00;0.00;;;;;15.89;50.80;99599.94;5076585;27;61885;-76
2022/04/08 06:43:52;;;;;;;;;0.00;0.00;;;;;15.90;50.59;99596.41;5082938;28;62166;-77
2022/04/08 06:46:17;;;;;;;;;2.00;0.00;;;;;15.90;50.51;99591.13;5080225;28;61915;-76
2022/04/08 06:48:43;;;;;;;;;0.00;0.00;;;;;15.90;50.93;99596.41;5081548;27;62405;-80
2022/04/08 06:51:08;;;;;;;;;1.00;0.00;;;;;15.91;50.70;99592.88;5083365;28;61874;-81
2022/04/08 06:53:34;;;;;;;;;0.00;0.00;;;;;15.93;50.99;99593.78;5081964;28;61776;-81
2022/04/08 06:56:03;;;;;;;;;0.00;0.00;;;;;15.92;50.90;99597.31;5083899;28;62027;-80
2022/04/08 06:58:30;;;;;;;;;0.00;0.00;;;;;15.91;50.96;99595.53;5081980;27;62161;-79
2022/04/08 07:00:56;;;;;;;;;0.00;0.00;;;;;15.93;51.27;99603.47;5082734;27;61834;-79
2022/04/08 07:03:22;;;;;;;;;0.25;0.00;;;;;15.93;51.25;99599.06;5082886;28;62037;-79
2022/04/08 07:05:47;;;;;;;;;1.00;1.00;;;;;15.93;51.15;99596.41;5082877;27;62106;-79
2022/04/08 07:08:13;;;;;;;;;3.00;0.75;;;;;15.92;51.98;99593.78;5097170;27;63717;-79
2022/04/08 07:10:38;;;;;;;;;0.75;0.75;;;;;15.95;51.99;99583.19;5082605;27;61914;-79
2022/04/08 07:13:05;;;;;;;;;0.25;0.00;;;;;15.99;52.13;99578.81;5083408;27;62217;-79
2022/04/08 07:15:31;;;;;;;;;1.25;0.00;;;;;16.02;52.39;99566.44;5083098;27;61770;-80
2022/04/08 07:17:57;;;;;;;;;1.00;1.00;;;;;16.06;51.93;99570.00;5082001;28;62494;-81
2022/04/08 07:20:22;;;;;;;;;0.75;0.75;;;;;16.07;52.12;99564.72;5075074;28;61924;-81
2022/04/08 07:22:48;;;;;;;;;1.00;1.00;;;;;16.12;51.34;99555.00;5083174;28;62066;-81
2022/04/08 07:25:15;;;;;;;;;2.50;1.00;;;;;16.11;51.71;99540.03;5084787;28;62283;-80
2022/04/08 07:27:52;;;;;;;;;1.00;1.00;;;;;16.14;51.92;99545.31;5071214;28;61924;-81
2022/04/08 07:30:20;;;;;;;;;2.75;1.00;;;;;16.14;51.65;99533.84;5064045;28;62077;-80
2022/04/08 07:32:46;;;;;;;;;1.75;1.00;;;;;16.13;51.19;99525.03;5066013;28;61843;-81
2022/04/08 07:35:12;;;;;;;;;4.50;1.00;;;;;16.14;51.89;99524.13;5085696;28;61989;-81
2022/04/08 07:37:38;;;;;;;;;1.00;1.00;;;;;16.11;51.63;99515.28;5081862;28;63545;-81
2022/04/08 07:40:09;;;;;;;;;6.25;1.25;;;;;16.11;51.76;99507.34;5099747;27;61939;-81
2022/04/08 07:42:34;;;;;;;;;1.75;1.25;;;;;16.10;51.86;99492.34;5071980;28;61878;-81
2022/04/08 07:45:00;;;;;;;;;4.25;2.25;;;;;16.11;52.19;99492.38;5063649;28;61775;-81
2022/04/08 07:47:29;;;;;;;;;2.00;2.00;;;;;16.08;51.93;99478.22;5067345;28;62769;-81
2022/04/08 07:49:58;;;;;;;;;4.75;2.25;;;;;16.06;51.73;99469.41;5083395;27;61802;-81
2022/04/08 07:52:28;;;;;;;;;1.75;1.00;;;;;16.00;52.07;99462.34;5084306;27;61904;-81
2022/04/08 07:54:54;;;;;;;;;1.50;1.00;;;;;15.94;51.60;99454.41;5083663;27;62190;-81
2022/04/08 07:57:20;;;;;;;;;1.25;1.25;;;;;15.90;52.12;99445.56;5086097;27;61891;-81
2022/04/08 07:59:46;;;;;;;;;4.00;2.50;;;;;15.86;52.35;99435.00;5089011;27;61738;-81
2022/04/08 08:02:12;;;;;;;;;1.00;1.00;;;;;15.79;52.13;99436.75;5089653;27;61724;-81
2022/04/08 08:04:37;;;;;;;;;0.00;0.00;;;;;15.78;51.36;99424.38;5088898;27;62172;-81
2022/04/08 08:07:03;;;;;;;;;2.50;1.00;;;;;15.79;52.81;99419.97;5087362;27;61861;-81
2022/04/08 08:09:29;;;;;;;;;2.00;2.00;;;;;15.82;52.48;99407.63;5087537;27;62094;-81
2022/04/08 08:11:54;;;;;;;;;2.25;1.25;;;;;15.93;52.65;99410.28;5089423;28;62356;-82
2022/04/08 08:14:20;;;;;;;;;0.00;0.00;;;;;15.96;51.71;99410.31;5089521;27;62089;-81
2022/04/08 08:16:45;;;;;;;;;3.50;3.50;;;;;15.94;51.42;99399.72;5104517;27;63671;-81
2022/04/08 08:19:11;;;;;;;;;4.00;2.00;;;;;15.87;52.42;99410.28;5084546;27;62055;-81
2022/04/08 08:21:37;;;;;;;;;1.25;1.25;;;;;15.85;52.77;99420.88;5086647;27;61901;-80
2022/04/08 08:24:03;;;;;;;;;2.50;1.00;;;;;15.84;52.42;99400.59;5088001;27;62272;-81
2022/04/08 08:26:29;;;;;;;;;1.50;1.50;;;;;15.87;52.25;99383.81;5101623;27;64692;-81
2022/04/08 08:28:55;;;;;;;;;2.00;2.00;;;;;15.91;53.14;99372.34;5086856;27;62116;-82
2022/04/08 08:31:22;;;;;;;;;1.00;1.00;;;;;15.90;52.37;99365.31;5087829;28;62194;-81
2022/04/08 08:33:47;;;;;;;;;2.00;2.00;;;;;15.89;52.01;99376.75;5103744;27;61936;-82
2022/04/08 08:36:13;;;;;;;;;1.00;1.00;;;;;15.87;52.75;99376.75;5102345;27;63779;-81
2022/04/08 08:38:38;;;;;;;;;4.75;2.50;;;;;15.90;52.53;99358.25;5102905;27;61887;-81
2022/04/08 08:41:06;;;;;;;;;7.25;6.00;;;;;15.89;52.53;99351.19;5087356;27;61669;-81
2022/04/08 08:43:32;;;;;;;;;1.25;1.25;;;;;15.79;53.08;99353.81;5100541;27;62033;-81
2022/04/08 08:46:02;;;;;;;;;4.50;4.50;;;;;15.71;52.25;99352.06;5084227;27;63238;-82
2022/04/08 08:48:34;;;;;;;;;3.00;3.00;;;;;15.68;52.92;99351.13;5085552;28;62171;-82
2022/04/08 08:51:02;;;;;;;;;3.25;2.75;;;;;15.50;53.05;99344.09;5103646;27;62031;-82
2022/04/08 08:53:30;;;;;;;;;5.00;2.00;;;;;15.43;52.58;99332.63;5086913;27;61259;-82
2022/04/08 08:55:56;;;;;;;;;2.50;2.00;;;;;15.40;53.87;99324.66;5085124;27;62768;-82
2022/04/08 08:58:23;;;;;;;;;3.00;3.00;;;;;15.41;53.54;99302.66;5084819;27;61958;-81
2022/04/08 09:00:49;;;;;;;;;3.00;1.00;;;;;15.47;53.26;99297.38;5082165;27;61932;-82
2022/04/08 09:03:14;;;;;;;;;4.00;3.00;;;;;15.41;53.30;99294.72;5081716;28;61821;-82
2022/04/08 09:05:45;;;;;;;;;4.75;2.25;;;;;15.42;54.17;99270.03;5101178;27;63730;-82
2022/04/08 09:08:15;;;;;;;;;2.00;2.00;;;;;15.32;53.54;99247.13;5085904;27;61911;-81
2022/04/08 09:10:52;;;;;;;;;2.25;2.25;;;;;15.22;54.00;99245.34;5101846;27;61995;-82
2022/04/08 09:13:22;;;;;;;;;2.50;2.00;;;;;15.12;53.52;99261.22;5087561;27;61766;-82
2022/04/08 09:15:58;;;;;;;;;2.00;2.00;;;;;15.01;54.44;99275.28;5085666;28;61803;-82
2022/04/08 09:18:30;;;;;;;;;1.00;1.00;;;;;14.88;54.24;99261.16;5086711;27;61315;-82
2022/04/08 09:20:56;;;;;;;;;1.00;1.00;;;;;14.81;54.59;99254.09;5085390;27;61815;-82
2022/04/08 09:23:21;;;;;;;;;3.50;1.75;;;;;14.70;54.55;99251.44;5101715;27;61771;-82
2022/04/08 09:25:48;;;;;;;;;1.50;1.50;;;;;14.63;54.65;99271.66;5084216;27;61733;-81
2022/04/08 09:28:16;;;;;;;;;1.00;1.00;;;;;14.64;55.53;99283.09;5084573;28;61877;-82
2022/04/08 09:30:48;;;;;;;;;3.25;2.00;;;;;14.74;55.14;99234.72;5084442;27;61972;-80
2022/04/08 09:33:19;;;;;;;;;2.00;2.00;;;;;14.68;54.90;99237.34;5084211;28;62218;-82
2022/04/08 09:35:45;;;;;;;;;1.00;1.00;;;;;14.56;57.39;99330.59;5083618;28;62038;-81
2022/04/08 09:38:11;;;;;;;;;2.50;1.00;;;;;14.29;57.98;99345.38;5083825;27;62196;-81
2022/04/08 09:40:38;;;;;;;;;1.00;1.00;;;;;14.29;60.71;99289.09;5084387;27;61983;-82
2022/04/08 09:43:04;;;;;;;;;2.00;2.00;;;;;14.18;59.18;99290.75;5097784;27;62196;-82
2022/04/08 09:45:31;;;;;;;;;0.50;0.50;;;;;14.18;59.09;99301.31;5083757;27;61972;-82
2022/04/08 09:48:01;;;;;;;;;1.25;1.25;;;;;14.24;59.42;99298.72;5083739;27;62102;-81
2022/04/08 09:50:28;;;;;;;;;5.00;5.00;;;;;14.31;58.81;99274.16;5084893;27;61790;-82
2022/04/08 09:52:54;;;;;;;;;2.00;2.00;;;;;14.30;58.48;99277.63;5097745;27;61745;-82
2022/04/08 09:55:22;;;;;;;;;6.25;1.75;;;;;14.22;58.16;99290.78;5096236;27;63768;-82
2022/04/08 09:57:53;;;;;;;;;7.50;3.00;;;;;14.23;58.25;99315.44;5063852;28;61731;-82
2022/04/08 10:00:19;;;;;;;;;11.50;8.50;;;;;14.38;57.96;99296.16;5064054;28;61850;-82
2022/04/08 10:02:47;;;;;;;;;7.75;4.00;;;;;14.45;58.65;99305.88;5082779;28;61848;-82
2022/04/08 10:05:13;;;;;;;;;29.00;23.25;;;;;14.52;59.99;99316.47;5083109;27;61890;-81
2022/04/08 10:07:40;;;;;;;;;22.00;19.00;;;;;14.55;58.15;99335.84;5083603;27;61916;-79
2022/04/08 10:10:40;;;;;;;;;14.75;12.25;;;;;14.52;58.35;99345.53;5098677;27;62054;-81
2022/04/08 10:13:27;;;;;;;;;7.25;7.00;;;;;14.58;59.41;99312.13;5083883;28;61987;-82
2022/04/08 10:16:04;;;;;;;;;9.00;7.50;;;;;14.51;60.82;99287.41;5083092;28;63302;-82
2022/04/08 10:18:39;;;;;;;;;2.50;2.00;;;;;14.45;58.12;99272.41;5099945;27;61795;-82
2022/04/08 10:21:05;;;;;;;;;5.50;5.50;;;;;14.42;59.69;99250.44;5098170;27;61962;-82
2022/04/08 10:23:39;;;;;;;;;9.00;6.75;;;;;14.39;58.45;99250.41;5100552;27;61713;-82
2022/04/08 10:26:15;;;;;;;;;16.25;14.25;;;;;14.39;58.35;99239.84;5082219;27;61853;-82
2022/04/08 10:28:41;;;;;;;;;18.75;17.50;;;;;14.32;57.60;99217.81;5083946;27;61679;-82
2022/04/08 10:31:23;;;;;;;;;3.00;3.00;;;;;14.24;58.65;99172.91;5118009;27;61859;-82
2022/04/08 10:33:58;;;;;;;;;3.75;2.75;;;;;14.22;57.99;99158.81;5084939;27;61821;-82
2022/04/08 10:36:34;;;;;;;;;4.00;4.00;;;;;14.40;57.80;99183.53;5083023;27;61959;-83
2022/04/08 10:39:14;;;;;;;;;3.25;3.25;;;;;14.40;57.06;99123.72;5084689;28;61991;-81
2022/04/08 10:41:57;;;;;;;;;4.00;2.00;;;;;14.24;57.89;99106.94;5084455;28;62000;-82
2022/04/08 10:44:32;;;;;;;;;3.75;3.50;;;;;14.14;57.62;99142.13;5085217;27;62039;-82
2022/04/08 10:47:00;;;;;;;;;3.50;3.00;;;;;14.17;57.04;99152.66;5082447;27;61725;-79
2022/04/08 10:49:26;;;;;;;;;3.25;2.25;;;;;14.22;58.10;99166.75;5083065;28;61734;-79
2022/04/08 10:51:52;;;;;;;;;4.00;2.00;;;;;14.28;57.44;99223.97;5083016;27;61762;-79
2022/04/08 10:54:18;;;;;;;;;6.50;4.50;;;;;14.34;59.02;99242.47;5082509;27;61843;-79
2022/04/08 10:56:43;;;;;;;;;16.00;10.75;;;;;14.46;57.60;99221.41;5081632;27;62014;-79
2022/04/08 10:59:09;;;;;;;;;2.00;2.00;;;;;14.47;57.12;99136.03;5083080;27;62120;-81
2022/04/08 11:01:46;;;;;;;;;3.50;2.50;;;;;14.43;56.68;99141.31;5081880;27;61944;-78
2022/04/08 11:04:12;;;;;;;;;1.00;1.00;;;;;14.43;55.65;99199.38;5082886;27;61797;-78
2022/04/08 11:06:37;;;;;;;;;2.00;2.00;;;;;14.44;57.20;99207.31;5081765;27;61969;-77
2022/04/08 11:09:14;;;;;;;;;6.75;5.50;;;;;14.52;55.59;99162.44;5081864;27;61907;-77
2022/04/08 11:11:42;;;;;;;;;1.25;1.25;;;;;14.61;54.61;99154.59;5082528;28;61845;-77
2022/04/08 11:14:10;;;;;;;;;1.00;1.00;;;;;14.53;55.14;99162.44;5082251;27;61821;-77
2022/04/08 11:16:38;;;;;;;;;2.00;2.00;;;;;14.62;55.51;99153.69;5096753;27;63797;-77
2022/04/08 11:19:08;;;;;;;;;6.75;3.00;;;;;14.67;55.74;99144.00;5081808;27;61790;-79
2022/04/08 11:21:38;;;;;;;;;4.25;3.00;;;;;14.54;56.27;99126.34;5080194;28;63000;-81
2022/04/08 11:24:09;;;;;;;;;4.50;2.50;;;;;14.45;55.57;99124.59;5080402;28;61900;-80
2022/04/08 11:26:48;;;;;;;;;2.00;2.00;;;;;14.35;56.22;99130.72;5079786;27;62653;-79
2022/04/08 11:29:16;;;;;;;;;2.00;2.00;;;;;14.31;56.20;99132.50;5081819;28;61803;-79
2022/04/08 11:31:43;;;;;;;;;2.00;2.00;;;;;14.31;55.34;99129.84;5080861;27;61989;-79